UIIIUNKL

Guest
Details From UIII - Irkutsk
To UNKL - Yemelyanovo
Flight Number -
Tags Generated
Created
Modified
Stats Distance 479 nm / 886 km
Max Altitude 0 ft / 0 m
Waypoints 3
Social Downloads 0
Likes 0
Share VATSIM

Download

Looking for another format? Having issues loading an existing format? Contact us
Advertisement - Login to hide

Notes

Generated

Route

UIII BK UNKL

ID Type Via Altitude Latitude Longitude Leg Dist Tot Dist Heading (true) Name
O UIII APT - 0 ft / 0 m 52.27217˚ 104.37436˚ - 0 nm - -
BK NDB - 0 ft / 0 m 56.15000˚ 92.58500˚ 474 nm 474 nm 304° / 294° KRASNOYARSK NDB
O UNKL APT - 0 ft / 0 m 56.17948˚ 92.46587˚ 4 nm 478 nm 294° / 294° -

Altitude Profile

Advertisement - Login to hide

Weather


0- 5 10 15 20 25 30 35+ Temperature / ° C

Clouds and Precipitation
Forecast for 2018-05-27 12:00 UTC. Updated an hour ago

Ground ~20,000 ft ~40,000 ft Winds

UIII

Details ICAO UIII (IKT)
Name Irkutsk
Region Russia
Timezone Asia/Irkutsk (UTC+8.0)
Stats Elevation 1,675 ft / 511 m (AMSL)
Location 52.266437° 104.395694°
Runways 1
Magnetic Variation 3.788° W

METAR

UIII 271200Z VRB01MPS CAVOK 21/03 Q1013 R30/60D NOSIG RMK QFE715/0953

Decode

TAF

TAF UIII 271100Z 2712/2812 30003MPS CAVOK BECMG 2718/2720 16005MPS

Decode

Departure Runways

ID Width Length Bearing (true) Bearing (mag) Surface Threshold Offset Overrun Length
12 148 ft / 45 m 10,408 ft / 3,172 m 113.68° 117.47° Concrete 1,312 ft / 400 m 266 ft / 81 m
30 148 ft / 45 m 10,408 ft / 3,172 m 293.72° 297.51° Concrete 1,178 ft / 359 m 1,316 ft / 401 m

UNKL

Details ICAO UNKL (KJA)
Name YEMELYANOVO
Region Russia
Timezone Asia/Krasnoyarsk (UTC+7.0)
Stats Elevation 942 ft / 287 m (AMSL)
Location 56.172946° 92.493276°
Runways 1
Magnetic Variation 4.106° E

METAR

UNKL 271200Z 20003G08MPS 160V240 9999 TS SCT036CB 24/09 Q1001 R29/CLRD65 TEMPO 21011G17MPS 3500 -TSRA RMK QFE726

Decode

TAF

TAF UNKL 271100Z 2712/2812 19005G11MPS 9999 SCT020CB TEMPO 2712/2715 21010G17MPS 3100 -TSRA FEW007 BKN013CB BECMG 2715/2716 02003G10MPS TEMPO 2716/2724 3500 -SHRA FEW005 BKN013CB BECMG 2801/2803 27006G13MPS

Decode

Destination Runways

ID Width Length Bearing (true) Bearing (mag) Surface Threshold Offset Overrun Length
11 197 ft / 60 m 12,113 ft / 3,692 m 113.16° 109.05° Asphalt 0 ft / 0 m 235 ft / 72 m
29 197 ft / 60 m 12,113 ft / 3,692 m 293.21° 289.10° Asphalt 0 ft / 0 m 215 ft / 66 m

Popular Alternatives